createdAt,value
2022-08-14T00:01:10.352Z,93830.81
2022-08-14T00:03:40.593Z,93823.19
2022-08-14T00:06:14.069Z,93823.19
2022-08-14T00:08:55.504Z,93815.03
2022-08-14T00:11:27.049Z,93814.25
2022-08-14T00:13:58.952Z,93815.84
2022-08-14T00:16:41.090Z,93813.97
2022-08-14T00:19:19.197Z,93810.13
2022-08-14T00:21:50.364Z,93801.44
2022-08-14T00:24:28.402Z,93806.88
2022-08-14T00:27:02.275Z,93811.25
2022-08-14T00:29:39.930Z,93799.53
2022-08-14T00:32:52.981Z,93803.34
2022-08-14T00:35:01.200Z,93796.28
2022-08-14T00:37:28.913Z,93791.94
2022-08-14T00:39:59.570Z,93794.16
2022-08-14T00:42:55.370Z,93791.72
2022-08-14T00:45:16.253Z,93796.06
2022-08-14T00:47:46.521Z,93782.72
2022-08-14T00:50:17.658Z,93780.84
2022-08-14T00:52:46.306Z,93785.44
2022-08-14T00:55:19.814Z,93793.63
2022-08-14T00:58:07.646Z,93786.56
2022-08-14T01:00:37.531Z,93785.25
2022-08-14T01:03:16.552Z,93781.19
2022-08-14T01:05:51.947Z,93773.84
2022-08-14T01:08:57.950Z,93770.31
2022-08-14T01:11:08.013Z,93765.69
2022-08-14T01:13:43.213Z,93763.25
2022-08-14T01:16:14.899Z,93763.25
2022-08-14T01:19:02.435Z,93761.59
2022-08-14T01:21:34.772Z,93753.44
2022-08-14T01:24:07.407Z,93755.09
2022-08-14T01:26:38.991Z,93748.00
2022-08-14T01:29:07.143Z,93740.09
2022-08-14T01:31:45.033Z,93742.31
2022-08-14T01:35:17.701Z,93742.31
2022-08-14T01:37:07.373Z,93737.97
2022-08-14T01:39:36.209Z,93738.56
2022-08-14T01:42:06.336Z,93747.00
2022-08-14T01:44:38.801Z,93739.72
2022-08-14T01:47:21.676Z,93735.38
2022-08-14T01:49:59.653Z,93732.16
2022-08-14T01:52:59.054Z,93721.84
2022-08-14T01:55:22.097Z,93727.56
2022-08-14T01:58:01.435Z,93718.91
2022-08-14T02:00:39.278Z,93716.47
2022-08-14T02:03:07.650Z,93715.94
2022-08-14T02:05:38.188Z,93709.72
2022-08-14T02:08:08.883Z,93701.03
2022-08-14T02:10:38.508Z,93706.47
2022-08-14T02:13:11.246Z,93695.88
2022-08-14T02:15:40.754Z,93699.69
2022-08-14T02:18:11.853Z,93691.81
2022-08-14T02:20:42.791Z,93691.81
2022-08-14T02:23:11.762Z,93691.81
2022-08-14T02:25:39.664Z,93684.78
2022-08-14T02:28:25.367Z,93672.59
2022-08-14T02:30:54.966Z,93684.50
2022-08-14T02:33:23.235Z,93676.56
2022-08-14T02:35:53.434Z,93660.53
2022-08-14T02:38:30.172Z,93671.69
2022-08-14T02:41:01.961Z,93666.56
2022-08-14T02:43:36.510Z,93662.41
2022-08-14T02:46:05.380Z,93656.19
2022-08-14T02:49:04.770Z,93657.56
2022-08-14T02:51:23.968Z,93664.72
2022-08-14T02:54:01.683Z,93667.19
2022-08-14T02:57:14.336Z,93673.13
2022-08-14T02:59:17.554Z,93672.34
2022-08-14T03:01:50.554Z,93665.56
2022-08-14T03:04:22.413Z,93665.06
2022-08-14T03:07:06.506Z,93665.28
2022-08-14T03:10:25.105Z,93662.06
2022-08-14T03:12:30.782Z,93652.25
2022-08-14T03:15:00.577Z,93649.53
2022-08-14T03:17:31.794Z,93645.44
2022-08-14T03:20:11.208Z,93649.78
2022-08-14T03:22:41.909Z,93648.75
2022-08-14T03:25:12.077Z,93644.69
2022-08-14T03:27:48.423Z,93649.34
2022-08-14T03:30:39.084Z,93645.00
2022-08-14T03:33:08.064Z,93653.16
2022-08-14T03:35:40.385Z,93660.41
2022-08-14T03:39:11.618Z,93646.31
2022-08-14T03:41:16.396Z,93637.13
2022-08-14T03:43:44.446Z,93632.50
2022-08-14T03:46:52.738Z,93632.50
2022-08-14T03:49:04.191Z,93621.09
2022-08-14T03:51:31.958Z,93614.03
2022-08-14T03:54:00.540Z,93608.31
2022-08-14T03:56:31.868Z,93610.53
2022-08-14T03:59:02.998Z,93602.38
2022-08-14T04:01:41.577Z,93597.81
2022-08-14T04:04:14.446Z,93602.41
2022-08-14T04:06:47.852Z,93602.72
2022-08-14T04:09:16.899Z,93608.16
2022-08-14T04:11:46.237Z,93602.41
2022-08-14T04:14:16.490Z,93595.09
2022-08-14T04:16:48.056Z,93598.09
2022-08-14T04:19:20.490Z,93592.66
2022-08-14T04:22:02.503Z,93596.47
2022-08-14T04:24:38.596Z,93593.25
2022-08-14T04:27:09.924Z,93593.56
2022-08-14T04:29:39.230Z,93593.31
2022-08-14T04:33:00.208Z,93590.59
2022-08-14T04:34:55.942Z,93578.91
2022-08-14T04:37:41.417Z,93582.72
2022-08-14T04:40:27.813Z,93585.16
2022-08-14T04:43:17.075Z,93583.53
2022-08-14T04:45:45.174Z,93571.06
2022-08-14T04:48:13.024Z,93569.13
2022-08-14T04:50:44.626Z,93568.03
2022-08-14T04:53:13.788Z,93566.41
2022-08-14T04:55:42.872Z,93574.28
2022-08-14T04:58:21.676Z,93568.63
2022-08-14T05:00:55.037Z,93578.97
2022-08-14T05:03:26.781Z,93570.00
2022-08-14T05:05:56.673Z,93570.31
2022-08-14T05:08:32.087Z,93576.53
2022-08-14T05:11:13.520Z,93577.13
2022-08-14T05:16:32.306Z,93566.78
2022-08-14T05:19:18.059Z,93568.38
2022-08-14T05:21:59.971Z,93576.53
2022-08-14T05:24:35.233Z,93578.97
2022-08-14T05:27:05.360Z,93580.31
2022-08-14T05:29:35.182Z,93584.94
2022-08-14T05:32:07.251Z,93578.66
2022-08-14T05:34:34.862Z,93590.09
2022-08-14T05:37:03.525Z,93573.78
2022-08-14T05:39:34.467Z,93573.78
2022-08-14T05:42:10.059Z,93579.72
2022-08-14T05:44:51.244Z,93584.66
2022-08-14T05:47:22.997Z,93588.97
2022-08-14T05:49:51.637Z,93580.53
2022-08-14T05:52:38.535Z,93586.78
2022-08-14T05:55:07.182Z,93590.81
2022-08-14T05:57:34.816Z,93595.69
2022-08-14T06:00:06.433Z,93589.13
2022-08-14T06:02:36.678Z,93589.94
2022-08-14T06:05:04.708Z,93595.09
2022-08-14T06:07:32.284Z,93591.25
2022-08-14T06:10:04.163Z,93598.03
2022-08-14T06:12:56.392Z,93599.66
2022-08-14T06:15:20.932Z,93605.09
2022-08-14T06:17:58.636Z,93595.00
2022-08-14T06:20:26.689Z,93588.78
2022-08-14T06:22:56.270Z,93596.34
2022-08-14T06:25:25.045Z,93595.53
2022-08-14T06:27:53.736Z,93590.91
2022-08-14T06:30:30.497Z,93591.94
2022-08-14T06:33:11.982Z,93590.81
2022-08-14T06:35:43.288Z,93590.53
2022-08-14T06:38:17.859Z,93589.16
2022-08-14T06:40:46.083Z,93583.91
2022-08-14T06:43:15.239Z,93573.59
2022-08-14T06:45:50.396Z,93564.00
2022-08-14T06:48:23.667Z,93560.19
2022-08-14T06:50:52.003Z,93556.06
2022-08-14T06:53:19.834Z,93551.16
2022-08-14T06:55:58.332Z,93544.59
2022-08-14T06:58:31.616Z,93540.50
2022-08-14T07:01:27.031Z,93543.72
2022-08-14T07:04:22.845Z,93539.59
2022-08-14T07:06:51.044Z,93534.69
2022-08-14T07:09:22.443Z,93525.13
2022-08-14T07:11:50.828Z,93528.34
2022-08-14T07:14:18.795Z,93517.97
2022-08-14T07:16:47.740Z,93518.19
2022-08-14T07:19:18.060Z,93517.88
2022-08-14T07:21:49.144Z,93521.16
2022-08-14T07:24:22.173Z,93517.00
2022-08-14T07:26:54.237Z,93519.44
2022-08-14T07:29:26.020Z,93514.81
2022-08-14T07:31:55.409Z,93506.38
2022-08-14T07:34:36.503Z,93514.25
2022-08-14T07:37:08.664Z,93519.38
2022-08-14T07:39:38.577Z,93517.47
2022-08-14T07:42:07.983Z,93513.63
2022-08-14T07:44:48.974Z,93512.53
2022-08-14T07:47:19.679Z,93517.97
2022-08-14T07:49:55.314Z,93518.75
2022-08-14T07:52:30.812Z,93513.84
2022-08-14T07:54:59.522Z,93513.84
2022-08-14T07:57:28.352Z,93510.81
2022-08-14T07:59:56.074Z,93511.63
2022-08-14T08:02:27.527Z,93510.22
2022-08-14T08:04:59.310Z,93509.94
2022-08-14T08:07:29.857Z,93514.25
2022-08-14T08:09:59.533Z,93517.50
2022-08-14T08:12:30.921Z,93520.22
2022-08-14T08:15:05.860Z,93519.94
2022-08-14T08:17:42.711Z,93529.69
2022-08-14T08:20:22.755Z,93526.69
2022-08-14T08:22:55.774Z,93528.31
2022-08-14T08:25:24.285Z,93525.59
2022-08-14T08:27:59.270Z,93520.16
2022-08-14T08:30:27.105Z,93520.16
2022-08-14T08:32:59.190Z,93521.75
2022-08-14T08:35:46.567Z,93521.75
2022-08-14T08:39:18.740Z,93523.38
2022-08-14T08:41:04.944Z,93522.25
2022-08-14T08:43:38.195Z,93523.38
2022-08-14T08:46:08.993Z,93513.28
2022-08-14T08:48:52.321Z,93524.16
2022-08-14T08:51:33.383Z,93523.88
2022-08-14T08:54:02.902Z,93514.09
2022-08-14T08:56:41.279Z,93505.94
2022-08-14T08:59:27.377Z,93506.44
2022-08-14T09:02:00.556Z,93505.63
2022-08-14T09:04:30.424Z,93510.25
2022-08-14T09:07:09.200Z,93504.81
2022-08-14T09:09:54.164Z,93508.66
2022-08-14T09:12:26.798Z,93520.31
2022-08-14T09:14:55.647Z,93508.66
2022-08-14T09:17:25.893Z,93511.38
2022-08-14T09:19:55.773Z,93510.25
2022-08-14T09:22:35.824Z,93507.53
2022-08-14T09:25:07.267Z,93502.09
2022-08-14T09:27:35.695Z,93512.38
2022-08-14T09:30:30.761Z,93514.59
2022-08-14T09:33:00.104Z,93507.75
2022-08-14T09:35:33.744Z,93514.00
2022-08-14T09:38:07.082Z,93512.38
2022-08-14T09:40:50.825Z,93506.66
2022-08-14T09:43:22.848Z,93501.69
2022-08-14T09:45:52.838Z,93502.53
2022-08-14T09:48:27.554Z,93509.75
2022-08-14T09:50:57.682Z,93510.47
2022-08-14T09:54:19.430Z,93494.34
2022-08-14T09:56:30.303Z,93494.78
2022-08-14T09:58:59.705Z,93495.38
2022-08-14T10:01:37.412Z,93496.88
2022-08-14T10:04:12.358Z,93480.13
2022-08-14T10:06:56.445Z,93479.75
2022-08-14T10:09:24.093Z,93481.28
2022-08-14T10:11:58.961Z,93481.78
2022-08-14T10:14:35.757Z,93480.66
2022-08-14T10:17:05.194Z,93479.25
2022-08-14T10:19:35.759Z,93476.22
2022-08-14T10:23:12.951Z,93462.56
2022-08-14T10:24:55.068Z,93462.16
2022-08-14T10:27:24.326Z,93466.28
2022-08-14T10:29:53.280Z,93459.91
2022-08-14T10:32:28.406Z,93458.59
2022-08-14T10:35:13.631Z,93452.44
2022-08-14T10:37:48.066Z,93451.16
2022-08-14T10:40:37.406Z,93445.72
2022-08-14T10:43:17.875Z,93427.34
2022-08-14T10:46:03.599Z,93431.25
2022-08-14T10:48:45.820Z,93427.69
2022-08-14T10:51:16.690Z,93417.63
2022-08-14T10:53:56.945Z,93422.75
2022-08-14T10:56:32.227Z,93419.22
2022-08-14T10:59:03.639Z,93417.13
2022-08-14T11:01:32.562Z,93401.25
2022-08-14T11:04:08.585Z,93401.75
2022-08-14T11:06:37.275Z,93403.97
2022-08-14T11:09:16.917Z,93405.09
2022-08-14T11:11:44.823Z,93404.28
2022-08-14T11:14:12.571Z,93405.25
2022-08-14T11:16:41.677Z,93401.94
2022-08-14T11:19:21.196Z,93411.91
2022-08-14T11:21:55.517Z,93400.88
2022-08-14T11:24:54.384Z,93399.47
2022-08-14T11:27:16.935Z,93394.31
2022-08-14T11:29:48.097Z,93392.50
2022-08-14T11:32:20.685Z,93390.09
2022-08-14T11:34:48.485Z,93390.41
2022-08-14T11:37:22.886Z,93383.66
2022-08-14T11:40:03.065Z,93386.69
2022-08-14T11:42:56.702Z,93387.00
2022-08-14T11:45:23.195Z,93389.44
2022-08-14T11:48:12.705Z,93392.94
2022-08-14T11:50:40.105Z,93387.78
2022-08-14T11:53:08.784Z,93393.56
2022-08-14T11:55:39.552Z,93374.00
2022-08-14T11:58:10.628Z,93372.69
2022-08-14T12:00:47.470Z,93369.75
2022-08-14T12:03:17.798Z,93368.97
2022-08-14T12:05:47.745Z,93372.00
2022-08-14T12:08:15.781Z,93371.22
2022-08-14T12:10:53.364Z,93366.53
2022-08-14T12:13:22.365Z,93368.78
2022-08-14T12:15:59.217Z,93368.28
2022-08-14T12:18:32.341Z,93360.41
2022-08-14T12:21:00.509Z,93359.91
2022-08-14T12:23:28.170Z,93361.53
2022-08-14T12:26:31.686Z,93354.16
2022-08-14T12:29:07.941Z,93355.28
2022-08-14T12:31:36.288Z,93346.59
2022-08-14T12:34:13.502Z,93347.69
2022-08-14T12:36:41.317Z,93344.19
2022-08-14T12:39:18.822Z,93344.47
2022-08-14T12:41:57.273Z,93340.16
2022-08-14T12:44:30.440Z,93342.56
2022-08-14T12:47:03.708Z,93347.22
2022-08-14T12:49:34.737Z,93337.91
2022-08-14T12:52:03.274Z,93339.34
2022-08-14T12:54:32.083Z,93330.06
2022-08-14T12:57:09.153Z,93324.09
2022-08-14T12:59:42.660Z,93322.47
2022-08-14T13:02:25.392Z,93315.91
2022-08-14T13:04:55.494Z,93313.53
2022-08-14T13:07:24.083Z,93318.63
2022-08-14T13:09:55.580Z,93314.00
2022-08-14T13:12:33.268Z,93310.47
2022-08-14T13:15:09.081Z,93309.88
2022-08-14T13:17:41.235Z,93311.47
2022-08-14T13:20:24.079Z,93310.66
2022-08-14T13:22:54.885Z,93302.47
2022-08-14T13:25:25.578Z,93306.03
2022-08-14T13:27:57.643Z,93302.47
2022-08-14T13:30:26.231Z,93303.31
2022-08-14T13:32:54.446Z,93300.56
2022-08-14T13:35:25.929Z,93288.06
2022-08-14T13:37:54.057Z,93291.91
2022-08-14T13:40:26.468Z,93282.13
2022-08-14T13:42:56.799Z,93282.13
2022-08-14T13:45:33.679Z,93280.19
2022-08-14T13:48:27.397Z,93281.78
2022-08-14T13:51:01.688Z,93277.97
2022-08-14T13:53:33.313Z,93273.31
2022-08-14T13:56:01.296Z,93269.78
2022-08-14T13:58:34.495Z,93258.56
2022-08-14T14:01:04.444Z,93267.53
2022-08-14T14:03:34.934Z,93257.75
2022-08-14T14:06:03.225Z,93261.31
2022-08-14T14:08:43.106Z,93254.75
2022-08-14T14:11:15.791Z,93260.19
2022-08-14T14:13:46.437Z,93255.53
2022-08-14T14:16:15.339Z,93247.34
2022-08-14T14:18:52.204Z,93247.34
2022-08-14T14:21:21.742Z,93250.06
2022-08-14T14:23:49.990Z,93250.41
2022-08-14T14:26:23.185Z,93246.56
2022-08-14T14:28:54.755Z,93236.78
2022-08-14T14:31:30.109Z,93244.94
2022-08-14T14:33:59.717Z,93242.22
2022-08-14T14:36:29.383Z,93243.84
2022-08-14T14:38:58.177Z,93237.56
2022-08-14T14:41:38.187Z,93234.84
2022-08-14T14:44:15.793Z,93232.13
2022-08-14T14:46:50.526Z,93232.94
2022-08-14T14:49:22.040Z,93238.69
2022-08-14T14:51:53.677Z,93231.63
2022-08-14T14:54:30.937Z,93235.16
2022-08-14T14:57:00.337Z,93232.75
2022-08-14T14:59:33.586Z,93224.91
2022-08-14T15:02:07.740Z,93225.69
2022-08-14T15:04:37.904Z,93224.06
2022-08-14T15:07:06.162Z,93231.13
2022-08-14T15:09:34.387Z,93230.34
2022-08-14T15:12:15.987Z,93228.72
2022-08-14T15:14:55.246Z,93220.53
2022-08-14T15:17:25.192Z,93219.75
2022-08-14T15:19:57.301Z,93215.09
2022-08-14T15:22:25.445Z,93210.75
2022-08-14T15:24:53.246Z,93206.91
2022-08-14T15:27:26.199Z,93215.59
2022-08-14T15:29:56.014Z,93214.16
2022-08-14T15:32:23.676Z,93212.75
2022-08-14T15:34:52.951Z,93214.34
2022-08-14T15:37:22.110Z,93214.03
2022-08-14T15:39:52.760Z,93212.94
2022-08-14T15:42:22.489Z,93210.19
2022-08-14T15:44:56.914Z,93211.00
2022-08-14T15:47:29.618Z,93214.53
2022-08-14T15:49:59.449Z,93206.66
2022-08-14T15:52:32.608Z,93207.47
2022-08-14T15:55:13.169Z,93208.25
2022-08-14T15:57:51.728Z,93212.09
2022-08-14T16:00:49.455Z,93192.25
2022-08-14T16:03:27.794Z,93203.94
2022-08-14T16:06:03.376Z,93194.97
2022-08-14T16:08:31.208Z,93194.97
2022-08-14T16:10:59.791Z,93194.16
2022-08-14T16:13:42.099Z,93191.13
2022-08-14T16:16:50.547Z,93187.75
2022-08-14T16:19:00.990Z,93183.47
2022-08-14T16:21:29.571Z,93175.66
2022-08-14T16:24:00.485Z,93182.56
2022-08-14T16:26:29.819Z,93170.09
2022-08-14T16:29:07.365Z,93173.97
2022-08-14T16:31:36.592Z,93178.66
2022-08-14T16:34:43.716Z,93173.88
2022-08-14T16:36:54.207Z,93170.69
2022-08-14T16:39:22.575Z,93167.81
2022-08-14T16:41:52.159Z,93168.47
2022-08-14T16:44:21.878Z,93169.13
2022-08-14T16:46:59.830Z,93170.56
2022-08-14T16:50:04.041Z,93164.97
2022-08-14T16:52:26.277Z,93170.25
2022-08-14T16:55:07.024Z,93169.59
2022-08-14T16:57:34.998Z,93166.25
2022-08-14T17:00:07.167Z,93170.25
2022-08-14T17:02:48.406Z,93168.53
2022-08-14T17:05:19.804Z,93167.06
2022-08-14T17:08:31.878Z,93165.63
2022-08-14T17:11:00.858Z,93170.78
2022-08-14T17:13:59.215Z,93166.56
2022-08-14T17:16:24.658Z,93166.75
2022-08-14T17:19:00.816Z,93164.50
2022-08-14T17:21:32.239Z,93163.38
2022-08-14T17:24:01.032Z,93171.56
2022-08-14T17:26:50.783Z,93175.88
2022-08-14T17:29:24.225Z,93169.31
2022-08-14T17:32:02.148Z,93173.66
2022-08-14T17:34:45.242Z,93173.66
2022-08-14T17:37:25.995Z,93178.00
2022-08-14T17:40:13.824Z,93176.06
2022-08-14T17:42:55.663Z,93191.31
2022-08-14T17:45:43.201Z,93188.28
2022-08-14T17:49:15.673Z,93191.31
2022-08-14T17:51:14.226Z,93191.00
2022-08-14T17:53:53.310Z,93191.00
2022-08-14T17:56:31.779Z,93192.63
2022-08-14T17:59:17.798Z,93195.66
2022-08-14T18:01:46.489Z,93191.78
2022-08-14T18:04:24.971Z,93193.13
2022-08-14T18:06:57.874Z,93185.75
2022-08-14T18:09:40.353Z,93185.41
2022-08-14T18:12:32.902Z,93184.63
2022-08-14T18:15:14.575Z,93179.16
2022-08-14T18:17:44.912Z,93182.69
2022-08-14T18:21:41.927Z,93183.97
2022-08-14T18:23:14.576Z,93184.75
2022-08-14T18:25:49.271Z,93182.84
2022-08-14T18:28:48.269Z,93189.91
2022-08-14T18:31:43.763Z,93193.47
2022-08-14T18:34:31.563Z,93192.31
2022-08-14T18:37:16.753Z,93190.72
2022-08-14T18:40:01.548Z,93196.66
2022-08-14T18:42:44.230Z,93195.53
2022-08-14T18:45:16.128Z,93197.16
2022-08-14T18:50:35.236Z,93200.34
2022-08-14T18:53:07.231Z,93195.69
2022-08-14T18:55:54.037Z,93204.38
2022-08-14T18:58:30.932Z,93206.78
2022-08-14T19:01:00.759Z,93206.78
2022-08-14T19:03:57.352Z,93214.66
2022-08-14T19:06:56.555Z,93220.91
2022-08-14T19:09:53.742Z,93222.53
2022-08-14T19:13:00.696Z,93232.97
2022-08-14T19:15:31.375Z,93235.38
2022-08-14T19:18:14.343Z,93234.75
2022-08-14T19:20:52.833Z,93241.78
2022-08-14T19:23:23.565Z,93240.81
2022-08-14T19:26:33.681Z,93242.06
2022-08-14T19:29:23.442Z,93244.16
2022-08-14T19:31:55.200Z,93235.31
2022-08-14T19:34:52.116Z,93245.56
2022-08-14T19:37:45.900Z,93245.44
2022-08-14T19:40:19.427Z,93240.91
2022-08-14T19:42:48.929Z,93244.59
2022-08-14T19:45:16.786Z,93256.16
2022-08-14T19:47:49.776Z,93255.66
2022-08-14T19:50:39.081Z,93248.09
2022-08-14T19:53:16.591Z,93246.31
2022-08-14T19:55:55.722Z,93253.22
2022-08-14T19:58:54.942Z,93253.34
2022-08-14T20:01:37.490Z,93252.88
2022-08-14T20:04:45.193Z,93260.56
2022-08-14T20:06:56.958Z,93262.00
2022-08-14T20:11:07.841Z,93266.97
2022-08-14T20:12:28.878Z,93264.88
2022-08-14T20:15:08.822Z,93267.13
2022-08-14T20:17:40.339Z,93263.91
2022-08-14T20:20:25.312Z,93266.13
2022-08-14T20:23:11.325Z,93265.28
2022-08-14T20:25:45.189Z,93264.00
2022-08-14T20:28:29.549Z,93262.72
2022-08-14T20:31:13.237Z,93261.09
2022-08-14T20:33:48.671Z,93273.94
2022-08-14T20:36:25.858Z,93262.53
2022-08-14T20:38:56.285Z,93264.78
2022-08-14T20:41:24.013Z,93265.06
2022-08-14T20:44:09.441Z,93260.44
2022-08-14T20:46:42.173Z,93259.13
2022-08-14T20:49:12.014Z,93262.97
2022-08-14T20:51:47.492Z,93263.28
2022-08-14T20:54:34.361Z,93266.81
2022-08-14T20:57:07.341Z,93259.78
2022-08-14T20:59:39.881Z,93254.94
2022-08-14T21:02:29.743Z,93254.94
2022-08-14T21:04:58.711Z,93257.97
2022-08-14T21:07:36.097Z,93268.06
2022-08-14T21:10:35.427Z,93267.28
2022-08-14T21:14:19.073Z,93264.84
2022-08-14T21:15:43.547Z,93264.84
2022-08-14T21:18:26.189Z,93257.00
2022-08-14T21:20:56.662Z,93258.13
2022-08-14T21:23:24.322Z,93254.56
2022-08-14T21:25:55.081Z,93261.16
2022-08-14T21:28:29.857Z,93255.69
2022-08-14T21:31:02.467Z,93256.81
2022-08-14T21:33:31.546Z,93263.38
2022-08-14T21:36:07.577Z,93268.03
2022-08-14T21:38:38.463Z,93274.59
2022-08-14T21:41:42.877Z,93262.91
2022-08-14T21:44:18.260Z,93261.28
2022-08-14T21:46:50.205Z,93264.81
2022-08-14T21:49:22.094Z,93266.75
2022-08-14T21:51:57.139Z,93267.03
2022-08-14T21:54:32.583Z,93263.50
2022-08-14T21:57:53.644Z,93261.91
2022-08-14T22:00:34.630Z,93266.22
2022-08-14T22:03:04.258Z,93264.94
2022-08-14T22:05:34.884Z,93263.34
2022-08-14T22:08:07.410Z,93270.41
2022-08-14T22:10:44.709Z,93266.06
2022-08-14T22:13:16.952Z,93272.31
2022-08-14T22:15:49.625Z,93271.53
2022-08-14T22:18:19.874Z,93267.97
2022-08-14T22:20:53.914Z,93271.53
2022-08-14T22:23:26.376Z,93272.63
2022-08-14T22:25:55.071Z,93271.81
2022-08-14T22:28:32.995Z,93275.38
2022-08-14T22:31:09.915Z,93273.72
2022-08-14T22:33:43.532Z,93281.91
2022-08-14T22:36:26.574Z,93272.94
2022-08-14T22:38:54.429Z,93265.88
2022-08-14T22:41:27.610Z,93274.06
2022-08-14T22:43:59.471Z,93270.50
2022-08-14T22:46:29.470Z,93272.44
2022-08-14T22:48:57.489Z,93268.91
2022-08-14T22:51:28.496Z,93274.34
2022-08-14T22:53:56.745Z,93271.63
2022-08-14T22:56:29.453Z,93260.72
2022-08-14T22:59:01.632Z,93265.38
2022-08-14T23:01:57.086Z,93258.81
2022-08-14T23:04:35.016Z,93259.13
2022-08-14T23:07:22.618Z,93257.22
2022-08-14T23:10:31.257Z,93254.50
2022-08-14T23:12:54.254Z,93261.06
2022-08-14T23:15:30.221Z,93254.50
2022-08-14T23:18:00.280Z,93254.78
2022-08-14T23:20:31.818Z,93247.72
2022-08-14T23:23:04.181Z,93255.09
2022-08-14T23:25:58.715Z,93249.63
2022-08-14T23:28:32.975Z,93248.03
2022-08-14T23:31:02.940Z,93243.41
2022-08-14T23:33:45.799Z,93254.28
2022-08-14T23:36:32.290Z,93242.56
2022-08-14T23:39:12.310Z,93248.03
2022-08-14T23:41:53.181Z,93249.16
2022-08-14T23:44:24.686Z,93254.59
2022-08-14T23:47:00.559Z,93253.00
2022-08-14T23:50:00.655Z,93247.25
2022-08-14T23:52:55.632Z,93249.16
2022-08-14T23:55:27.006Z,93240.47
2022-08-14T23:58:00.826Z,93240.47
